Time;durP1;ratioP1;P1;durP2;ratioP2;P2;SDS_P1;SDS_P2;PMS_P1;PMS_P2;Temp;Humidity;BMP_temperature;BMP_pressure;BME280_temperature;BME280_humidity;BME280_pressure;Samples;Min_cycle;Max_cycle;Signal;HPM_P1;HPM_P2
2023/01/31 00:02:16;;;;;;;;;;;;;;;1.53;97.87;102448.72;5061875;28;19960;-58
2023/01/31 00:04:41;;;;;;;;;;;;;;;1.53;97.87;102445.25;5063187;28;19962;-57
2023/01/31 00:07:06;;;;;;;;;;;;;;;1.53;97.97;102446.09;5062838;28;19966;-59
2023/01/31 00:09:31;;;;;;;;;;;;;;;1.51;97.96;102434.84;5065115;28;20004;-58
2023/01/31 00:11:56;;;;;;;;;;;;;;;1.54;97.98;102447.78;5056616;28;19966;-59
2023/01/31 00:14:22;;;;;;;;;;;;;;;1.55;98.09;102446.03;5064734;28;19952;-59
2023/01/31 00:16:47;;;;;;;;;;;;;;;1.57;98.35;102444.19;5055737;28;19917;-58
2023/01/31 00:19:12;;;;;;;;;;;;;;;1.56;98.26;102452.97;5074534;28;19991;-58
2023/01/31 00:21:40;;;;;;;;;;;;;;;1.53;98.20;102453.94;5062894;28;19913;-58
2023/01/31 00:24:05;;;;;;;;;;;;;;;1.52;98.06;102457.50;5071964;28;19916;-59
2023/01/31 00:26:32;;;;;;;;;;;;;;;1.52;98.35;102456.66;5072569;28;19920;-58
2023/01/31 00:28:58;;;;;;;;;;;;;;;1.51;98.24;102474.13;5063318;28;20050;-59
2023/01/31 00:31:24;;;;;;;;;;;;;;;1.49;98.39;102468.13;5058390;28;19916;-58
2023/01/31 00:33:50;;;;;;;;;;;;;;;1.49;98.02;102465.50;5069966;28;19995;-56
2023/01/31 00:36:17;;;;;;;;;;;;;;;1.51;98.49;102471.50;5072905;28;20467;-58
2023/01/31 00:38:43;;;;;;;;;;;;;;;1.59;98.73;102465.06;5067833;28;20007;-59
2023/01/31 00:41:09;;;;;;;;;;;;;;;1.63;98.96;102458.75;5070433;28;19927;-58
2023/01/31 00:43:34;;;;;;;;;;;;;;;1.67;99.06;102448.03;5063667;28;19920;-58
2023/01/31 00:45:59;;;;;;;;;;;;;;;1.78;99.42;102444.94;5062074;28;20437;-58
2023/01/31 00:48:24;;;;;;;;;;;;;;;1.82;99.51;102433.38;5063327;28;19917;-58
2023/01/31 00:50:50;;;;;;;;;;;;;;;1.81;99.43;102434.31;5060738;28;19921;-59
2023/01/31 00:53:17;;;;;;;;;;;;;;;1.83;99.37;102443.78;5069335;28;20565;-59
2023/01/31 00:55:42;;;;;;;;;;;;;;;1.86;99.48;102438.38;5065638;28;20003;-58
2023/01/31 00:58:07;;;;;;;;;;;;;;;1.89;99.22;102437.38;5071608;28;19959;-59
2023/01/31 01:00:32;;;;;;;;;;;;;;;1.92;99.48;102432.00;5061766;28;19913;-57
2023/01/31 01:02:58;;;;;;;;;;;;;;;1.94;99.42;102432.75;5064314;28;19917;-58
2023/01/31 01:05:23;;;;;;;;;;;;;;;1.95;99.38;102423.13;5080401;28;20035;-59
2023/01/31 01:07:48;;;;;;;;;;;;;;;1.95;99.17;102425.75;5070758;28;19920;-59
2023/01/31 01:10:13;;;;;;;;;;;;;;;1.97;99.29;102413.41;5068381;28;20027;-59
2023/01/31 01:12:38;;;;;;;;;;;;;;;1.99;99.27;102415.03;5061920;28;19924;-58
2023/01/31 01:15:04;;;;;;;;;;;;;;;2.00;99.24;102411.50;5077419;28;20007;-58
2023/01/31 01:17:29;;;;;;;;;;;;;;;2.00;99.40;102400.16;5069262;28;20011;-59
2023/01/31 01:19:54;;;;;;;;;;;;;;;2.02;99.24;102399.16;5064398;28;19920;-59
2023/01/31 01:22:19;;;;;;;;;;;;;;;2.01;99.31;102392.22;5055782;28;20287;-59
2023/01/31 01:24:45;;;;;;;;;;;;;;;2.01;99.38;102389.59;5071195;28;20526;-58
2023/01/31 01:27:11;;;;;;;;;;;;;;;1.99;99.17;102398.47;5072837;28;19916;-58
2023/01/31 01:29:36;;;;;;;;;;;;;;;1.98;99.32;102399.41;5079913;28;19928;-58
2023/01/31 01:32:02;;;;;;;;;;;;;;;1.95;99.26;102389.91;5059873;28;19920;-57
2023/01/31 01:34:27;;;;;;;;;;;;;;;1.96;99.15;102394.22;5062955;28;19923;-59
2023/01/31 01:36:52;;;;;;;;;;;;;;;1.96;99.37;102388.16;5064358;28;19975;-57
2023/01/31 01:39:17;;;;;;;;;;;;;;;1.97;99.41;102380.22;5065503;28;20333;-60
2023/01/31 01:41:43;;;;;;;;;;;;;;;1.92;99.46;102371.75;5071429;28;20033;-58
2023/01/31 01:44:27;;;;;;;;;;;;;;;2.01;99.69;102378.28;5085164;28;19920;-59
2023/01/31 01:46:52;;;;;;;;;;;;;;;2.05;99.63;102383.31;5068173;28;19917;-59
2023/01/31 01:49:22;;;;;;;;;;;;;;;2.09;99.82;102384.00;5065958;28;19928;-58
2023/01/31 01:51:50;;;;;;;;;;;;;;;2.10;99.82;102385.69;5068192;28;19924;-58
2023/01/31 01:54:19;;;;;;;;;;;;;;;2.11;99.67;102383.00;5076303;28;20409;-58
2023/01/31 01:56:46;;;;;;;;;;;;;;;2.12;99.63;102382.06;5066021;28;20264;-58
2023/01/31 01:59:17;;;;;;;;;;;;;;;2.15;99.62;102383.69;5066283;28;20423;-58
2023/01/31 02:01:45;;;;;;;;;;;;;;;2.16;99.62;102382.75;5061826;28;19963;-59
2023/01/31 02:04:12;;;;;;;;;;;;;;;2.20;99.91;102388.69;5071179;28;19923;-58
2023/01/31 02:06:38;;;;;;;;;;;;;;;2.25;99.88;102389.28;5065493;28;20024;-58
2023/01/31 02:09:06;;;;;;;;;;;;;;;2.28;99.77;102383.88;5067653;28;20026;-58
2023/01/31 02:11:32;;;;;;;;;;;;;;;2.29;99.84;102386.44;5069149;28;19923;-59
2023/01/31 02:14:03;;;;;;;;;;;;;;;2.32;99.83;102385.44;5067004;28;20023;-58
2023/01/31 02:16:29;;;;;;;;;;;;;;;2.33;99.80;102382.75;5067859;28;19917;-58
2023/01/31 02:18:55;;;;;;;;;;;;;;;2.33;99.75;102379.28;5071126;28;20011;-58
2023/01/31 02:21:39;;;;;;;;;;;;;;;2.33;99.61;102392.38;5063515;28;19962;-58
2023/01/31 02:24:07;;;;;;;;;;;;;;;2.37;99.75;102404.41;5066859;28;19922;-59
2023/01/31 02:26:41;;;;;;;;;;;;;;;2.40;100.00;102404.25;5069224;28;19916;-58
2023/01/31 02:29:06;;;;;;;;;;;;;;;2.42;100.00;102412.88;5066698;28;19995;-57
2023/01/31 02:31:37;;;;;;;;;;;;;;;2.45;99.74;102408.31;5063275;28;20020;-59
2023/01/31 02:34:11;;;;;;;;;;;;;;;2.46;100.00;102396.06;5062651;28;20011;-58
2023/01/31 02:36:46;;;;;;;;;;;;;;;2.49;100.00;102396.72;5065111;28;19927;-59
2023/01/31 02:39:11;;;;;;;;;;;;;;;2.51;100.00;102396.66;5074083;28;20347;-58
2023/01/31 02:41:55;;;;;;;;;;;;;;;2.53;100.00;102389.56;5056502;28;20420;-58
2023/01/31 02:47:17;;;;;;;;;;;;;;;2.54;99.99;102382.53;5074961;28;19923;-57
2023/01/31 02:49:47;;;;;;;;;;;;;;;2.53;100.00;102373.81;5059376;28;20418;-59
2023/01/31 02:52:35;;;;;;;;;;;;;;;2.53;100.00;102378.22;5066458;28;19938;-59
2023/01/31 02:58:15;;;;;;;;;;;;;;;2.52;100.00;102382.63;5060551;28;20419;-59
2023/01/31 03:00:42;;;;;;;;;;;;;;;2.51;100.00;102377.44;5073590;28;19929;-59
2023/01/31 03:03:11;;;;;;;;;;;;;;;2.50;100.00;102379.22;5069592;28;19925;-59
2023/01/31 03:05:36;;;;;;;;;;;;;;;2.49;100.00;102377.53;5075769;28;20284;-58
2023/01/31 03:08:04;;;;;;;;;;;;;;;2.47;100.00;102371.53;5081202;28;19913;-59
2023/01/31 03:10:45;;;;;;;;;;;;;;;2.46;100.00;102361.97;5074777;28;20383;-58
2023/01/31 03:13:25;;;;;;;;;;;;;;;2.44;100.00;102369.06;5056175;28;19924;-59
2023/01/31 03:18:46;;;;;;;;;;;;;;;2.43;100.00;102370.84;5065954;28;19923;-59
2023/01/31 03:21:32;;;;;;;;;;;;;;;2.44;100.00;102374.31;5073832;28;19916;-59
2023/01/31 03:23:58;;;;;;;;;;;;;;;2.45;100.00;102368.13;5073530;28;19916;-58
2023/01/31 03:26:24;;;;;;;;;;;;;;;2.45;100.00;102363.75;5067438;28;19927;-59
2023/01/31 03:28:54;;;;;;;;;;;;;;;2.46;100.00;102373.31;5068542;28;19948;-58
2023/01/31 03:31:25;;;;;;;;;;;;;;;2.48;100.00;102370.59;5069491;28;19925;-59
2023/01/31 03:33:51;;;;;;;;;;;;;;;2.46;100.00;102365.44;5062111;28;20470;-58
2023/01/31 03:36:40;;;;;;;;;;;;;;;2.48;100.00;102370.59;5064514;28;19916;-59
2023/01/31 03:39:12;;;;;;;;;;;;;;;2.49;100.00;102365.28;5074633;28;20007;-58
2023/01/31 03:41:43;;;;;;;;;;;;;;;2.53;100.00;102357.25;5057987;28;19938;-59
2023/01/31 03:44:14;;;;;;;;;;;;;;;2.54;100.00;102349.28;5066759;28;20003;-58
2023/01/31 03:46:42;;;;;;;;;;;;;;;2.56;100.00;102357.06;5055701;28;19979;-59
2023/01/31 03:49:10;;;;;;;;;;;;;;;2.59;100.00;102346.41;5071732;28;19966;-58
2023/01/31 03:51:37;;;;;;;;;;;;;;;2.62;100.00;102343.66;5061540;28;19917;-58
2023/01/31 03:54:05;;;;;;;;;;;;;;;2.66;100.00;102342.56;5062148;28;20003;-59
2023/01/31 03:56:36;;;;;;;;;;;;;;;2.70;100.00;102334.44;5066764;28;19977;-59
2023/01/31 03:59:04;;;;;;;;;;;;;;;2.75;100.00;102345.53;5073953;28;20341;-59
2023/01/31 04:01:33;;;;;;;;;;;;;;;2.78;100.00;102339.25;5067847;28;19928;-58
2023/01/31 04:04:05;;;;;;;;;;;;;;;2.80;100.00;102346.13;5074333;28;20010;-58
2023/01/31 04:06:30;;;;;;;;;;;;;;;2.83;100.00;102337.22;5062727;28;20377;-58
2023/01/31 04:08:55;;;;;;;;;;;;;;;2.85;100.00;102345.00;5074695;28;20007;-58
2023/01/31 04:11:23;;;;;;;;;;;;;;;2.85;100.00;102335.38;5059816;28;20022;-58
2023/01/31 04:13:48;;;;;;;;;;;;;;;2.87;100.00;102330.03;5066424;28;19962;-58
2023/01/31 04:16:14;;;;;;;;;;;;;;;2.87;100.00;102336.13;5073730;28;19955;-58
2023/01/31 04:18:39;;;;;;;;;;;;;;;2.87;100.00;102325.63;5082489;28;20006;-59
2023/01/31 04:21:04;;;;;;;;;;;;;;;2.87;100.00;102332.66;5067037;28;20371;-59
2023/01/31 04:23:29;;;;;;;;;;;;;;;2.85;100.00;102327.50;5072460;28;19912;-59
2023/01/31 04:25:55;;;;;;;;;;;;;;;2.84;100.00;102333.69;5065280;28;19935;-57
2023/01/31 04:28:20;;;;;;;;;;;;;;;2.83;100.00;102328.50;5058861;28;20410;-59
2023/01/31 04:30:45;;;;;;;;;;;;;;;2.80;100.00;102322.50;5066794;28;19921;-58
2023/01/31 04:33:10;;;;;;;;;;;;;;;2.77;100.00;102330.53;5063917;28;19916;-59
2023/01/31 04:35:38;;;;;;;;;;;;;;;2.75;100.00;102332.41;5075241;28;20062;-59
2023/01/31 04:38:03;;;;;;;;;;;;;;;2.73;100.00;102339.50;5071156;28;19962;-58
2023/01/31 04:40:28;;;;;;;;;;;;;;;2.70;100.00;102331.81;5062550;28;19948;-58
2023/01/31 04:42:54;;;;;;;;;;;;;;;2.66;100.00;102326.81;5065399;28;20509;-58
2023/01/31 04:45:19;;;;;;;;;;;;;;;2.64;100.00;102316.41;5072390;28;19924;-58
2023/01/31 04:47:44;;;;;;;;;;;;;;;2.66;100.00;102317.19;5073600;28;19924;-59
2023/01/31 04:50:09;;;;;;;;;;;;;;;2.68;100.00;102299.59;5067436;28;20046;-57
2023/01/31 04:52:34;;;;;;;;;;;;;;;2.68;100.00;102302.19;5069091;28;19921;-58
2023/01/31 04:55:00;;;;;;;;;;;;;;;2.70;100.00;102294.25;5062397;28;19965;-59
2023/01/31 04:57:25;;;;;;;;;;;;;;;2.67;100.00;102303.13;5054742;28;20410;-59
2023/01/31 04:59:51;;;;;;;;;;;;;;;2.69;100.00;102295.19;5067245;28;19917;-59
2023/01/31 05:02:16;;;;;;;;;;;;;;;2.72;100.00;102287.16;5061854;28;20401;-58
2023/01/31 05:04:41;;;;;;;;;;;;;;;2.75;100.00;102286.97;5060072;28;19913;-59
2023/01/31 05:07:07;;;;;;;;;;;;;;;2.77;100.00;102285.09;5064125;28;20371;-59
2023/01/31 05:09:32;;;;;;;;;;;;;;;2.78;100.00;102295.50;5072057;28;19928;-58
2023/01/31 05:11:57;;;;;;;;;;;;;;;2.82;100.00;102296.19;5057394;28;20008;-58
2023/01/31 05:14:22;;;;;;;;;;;;;;;2.84;100.00;102286.44;5070894;28;19924;-59
2023/01/31 05:16:47;;;;;;;;;;;;;;;2.86;100.00;102278.50;5075213;28;19951;-58
2023/01/31 05:19:13;;;;;;;;;;;;;;;2.89;100.00;102283.56;5069514;28;20007;-59
2023/01/31 05:21:53;;;;;;;;;;;;;;;2.91;100.00;102287.81;5059818;28;19917;-60
2023/01/31 05:24:19;;;;;;;;;;;;;;;2.93;100.00;102291.22;5060614;28;20646;-59
2023/01/31 05:26:44;;;;;;;;;;;;;;;2.92;100.00;102294.75;5066610;28;20668;-59
2023/01/31 05:29:09;;;;;;;;;;;;;;;2.94;100.00;102292.06;5074173;28;19980;-59
2023/01/31 05:31:34;;;;;;;;;;;;;;;2.92;100.00;102283.44;5066922;28;20410;-59
2023/01/31 05:33:59;;;;;;;;;;;;;;;2.91;100.00;102286.97;5068344;28;19916;-59
2023/01/31 05:36:25;;;;;;;;;;;;;;;2.92;100.00;102270.31;5065856;28;19920;-60
2023/01/31 05:38:50;;;;;;;;;;;;;;;2.94;100.00;102265.81;5062621;28;19925;-58
2023/01/31 05:41:15;;;;;;;;;;;;;;;2.97;100.00;102269.09;5067001;28;19924;-58
2023/01/31 05:43:40;;;;;;;;;;;;;;;2.98;100.00;102269.94;5061886;28;19952;-59
2023/01/31 05:46:05;;;;;;;;;;;;;;;3.01;100.00;102267.16;5061963;28;19975;-59
2023/01/31 05:48:31;;;;;;;;;;;;;;;3.02;100.00;102261.81;5063483;28;19916;-59
2023/01/31 05:50:56;;;;;;;;;;;;;;;3.02;100.00;102256.56;5062271;28;20327;-58
2023/01/31 05:53:21;;;;;;;;;;;;;;;3.03;100.00;102265.28;5067625;28;20295;-59
2023/01/31 05:55:47;;;;;;;;;;;;;;;3.03;100.00;102262.66;5063293;28;19924;-58
2023/01/31 05:58:12;;;;;;;;;;;;;;;3.02;100.00;102274.09;5076103;28;20295;-58
2023/01/31 06:00:37;;;;;;;;;;;;;;;3.00;100.00;102263.69;5060656;28;19925;-59
2023/01/31 06:03:02;;;;;;;;;;;;;;;3.00;100.00;102270.72;5054246;28;19923;-58
2023/01/31 06:05:28;;;;;;;;;;;;;;;3.01;100.00;102272.41;5070285;28;19925;-57
2023/01/31 06:07:54;;;;;;;;;;;;;;;2.99;100.00;102275.13;5060219;28;19987;-59
2023/01/31 06:10:19;;;;;;;;;;;;;;;3.00;100.00;102268.09;5069437;28;20031;-59
2023/01/31 06:12:44;;;;;;;;;;;;;;;3.00;100.00;102270.72;5064504;28;20664;-58
2023/01/31 06:15:09;;;;;;;;;;;;;;;3.01;100.00;102259.28;5060877;28;20432;-58
2023/01/31 06:17:35;;;;;;;;;;;;;;;3.04;100.00;102256.47;5059711;28;20406;-57
2023/01/31 06:20:00;;;;;;;;;;;;;;;2.98;100.00;102241.94;5050940;28;20503;-59
2023/01/31 06:22:25;;;;;;;;;;;;;;;3.06;100.00;102259.88;5058950;28;19928;-58
2023/01/31 06:24:50;;;;;;;;;;;;;;;3.09;100.00;102252.66;5057439;28;19920;-59
2023/01/31 06:27:15;;;;;;;;;;;;;;;3.07;100.00;102249.28;5058895;28;20471;-59
2023/01/31 06:29:40;;;;;;;;;;;;;;;3.07;100.00;102248.44;5063643;28;20383;-58
2023/01/31 06:32:06;;;;;;;;;;;;;;;3.07;100.00;102245.81;5054027;28;19924;-59
2023/01/31 06:34:31;;;;;;;;;;;;;;;3.06;100.00;102247.59;5059738;28;19916;-59
2023/01/31 06:36:57;;;;;;;;;;;;;;;3.05;100.00;102247.69;5054140;28;19924;-59
2023/01/31 06:39:23;;;;;;;;;;;;;;;3.05;100.00;102250.31;5062747;28;19920;-58
2023/01/31 06:41:48;;;;;;;;;;;;;;;3.05;100.00;102239.81;5053187;28;19921;-59
2023/01/31 06:44:13;;;;;;;;;;;;;;;3.04;100.00;102225.84;5061027;28;19917;-60
2023/01/31 06:46:38;;;;;;;;;;;;;;;3.07;100.00;102227.44;5058318;28;19920;-59
2023/01/31 06:49:04;;;;;;;;;;;;;;;3.09;100.00;102234.28;5060145;28;19917;-58
2023/01/31 06:51:29;;;;;;;;;;;;;;;3.10;100.00;102237.75;5056573;28;19928;-59
2023/01/31 06:53:55;;;;;;;;;;;;;;;3.10;100.00;102233.34;5056511;28;19962;-60
2023/01/31 06:56:20;;;;;;;;;;;;;;;3.11;100.00;102234.19;5055899;28;19947;-57
2023/01/31 06:58:45;;;;;;;;;;;;;;;3.10;100.00;102245.63;5054754;28;19921;-58
2023/01/31 07:01:11;;;;;;;;;;;;;;;3.11;100.00;102223.69;5060422;28;19962;-60
2023/01/31 07:03:37;;;;;;;;;;;;;;;3.13;100.00;102227.06;5065433;28;20363;-59
2023/01/31 07:06:02;;;;;;;;;;;;;;;3.15;100.00;102225.19;5060250;28;19999;-59
2023/01/31 07:08:29;;;;;;;;;;;;;;;3.17;100.00;102217.25;5066130;28;19923;-58
2023/01/31 07:10:54;;;;;;;;;;;;;;;3.18;100.00;102209.31;5063671;28;19971;-59
2023/01/31 07:13:19;;;;;;;;;;;;;;;3.22;100.00;102220.47;5063933;28;19959;-59
2023/01/31 07:15:44;;;;;;;;;;;;;;;3.23;100.00;102217.75;5068927;28;19932;-58
2023/01/31 07:18:11;;;;;;;;;;;;;;;3.26;100.00;102217.56;5066764;28;20011;-58
2023/01/31 07:20:38;;;;;;;;;;;;;;;3.27;100.00;102211.38;5070275;28;19948;-60
2023/01/31 07:23:03;;;;;;;;;;;;;;;3.28;100.00;102201.72;5068199;28;19924;-58
2023/01/31 07:25:30;;;;;;;;;;;;;;;3.29;100.00;102196.38;5067838;28;20372;-58
2023/01/31 07:27:56;;;;;;;;;;;;;;;3.30;100.00;102197.22;5060564;28;19927;-59
2023/01/31 07:30:21;;;;;;;;;;;;;;;3.31;100.00;102197.13;5064256;28;20292;-59
2023/01/31 07:32:47;;;;;;;;;;;;;;;3.32;100.00;102198.81;5057118;28;19917;-59
2023/01/31 07:35:12;;;;;;;;;;;;;;;3.35;100.00;102208.31;5058007;28;20292;-59
2023/01/31 07:37:38;;;;;;;;;;;;;;;3.37;100.00;102220.41;5061116;28;19923;-58
2023/01/31 07:40:04;;;;;;;;;;;;;;;3.38;100.00;102211.59;5062441;28;20023;-59
2023/01/31 07:42:29;;;;;;;;;;;;;;;3.40;100.00;102198.38;5060803;28;19931;-59
2023/01/31 07:44:54;;;;;;;;;;;;;;;3.40;100.00;102185.25;5054545;28;19921;-58
2023/01/31 07:47:20;;;;;;;;;;;;;;;3.43;100.00;102190.31;5061676;28;19920;-59
2023/01/31 07:49:45;;;;;;;;;;;;;;;3.39;100.00;102183.56;5069902;28;20329;-58
2023/01/31 07:52:10;;;;;;;;;;;;;;;3.50;100.00;102185.56;5074981;28;19913;-59
2023/01/31 07:54:35;;;;;;;;;;;;;;;3.57;100.00;102203.47;5072080;28;20057;-58
2023/01/31 07:57:00;;;;;;;;;;;;;;;3.58;100.00;102192.03;5074205;28;20007;-58
2023/01/31 07:59:25;;;;;;;;;;;;;;;3.62;99.79;102205.81;5061303;28;20456;-58
2023/01/31 08:04:35;;;;;;;;;;;;;;;3.61;99.58;102188.38;5063747;28;20554;-58
2023/01/31 08:07:02;;;;;;;;;;;;;;;3.64;99.53;102196.06;5058520;28;20007;-57
2023/01/31 08:09:27;;;;;;;;;;;;;;;3.62;99.63;102174.31;5055581;28;19963;-58
2023/01/31 08:11:53;;;;;;;;;;;;;;;3.65;99.61;102187.25;5055821;28;19958;-58
2023/01/31 08:14:24;;;;;;;;;;;;;;;3.66;99.60;102173.16;5060057;28;20426;-57
2023/01/31 08:16:49;;;;;;;;;;;;;;;3.68;99.21;102181.81;5072905;28;19921;-58
2023/01/31 08:19:14;;;;;;;;;;;;;;;3.70;99.29;102174.66;5062894;28;19951;-57
2023/01/31 08:21:39;;;;;;;;;;;;;;;3.70;99.16;102166.78;5073575;28;20510;-58
2023/01/31 08:24:04;;;;;;;;;;;;;;;3.72;99.31;102170.16;5069357;28;19913;-59
2023/01/31 08:26:30;;;;;;;;;;;;;;;3.72;98.94;102167.53;5069602;28;20304;-58
2023/01/31 08:28:55;;;;;;;;;;;;;;;3.74;99.13;102163.03;5072412;28;19920;-58
2023/01/31 08:31:22;;;;;;;;;;;;;;;3.79;99.06;102160.16;5056460;28;20422;-59
2023/01/31 08:33:50;;;;;;;;;;;;;;;3.79;98.76;102158.38;5067170;28;19955;-59
2023/01/31 08:36:16;;;;;;;;;;;;;;;3.85;98.79;102157.13;5066196;28;19969;-58
2023/01/31 08:38:41;;;;;;;;;;;;;;;3.89;98.56;102148.13;5066095;28;19962;-59
2023/01/31 08:41:06;;;;;;;;;;;;;;;3.92;98.48;102155.81;5070135;28;19915;-58
2023/01/31 08:43:31;;;;;;;;;;;;;;;3.91;98.66;102157.59;5064299;28;19917;-58
2023/01/31 08:45:57;;;;;;;;;;;;;;;3.93;98.40;102153.09;5070078;28;19917;-58
2023/01/31 08:48:22;;;;;;;;;;;;;;;3.96;98.19;102131.88;5060818;28;19920;-58
2023/01/31 08:50:47;;;;;;;;;;;;;;;4.00;98.16;102132.50;5063951;28;19917;-59
2023/01/31 08:53:12;;;;;;;;;;;;;;;4.00;97.94;102133.34;5069224;28;20015;-58
2023/01/31 08:55:37;;;;;;;;;;;;;;;4.06;97.90;102128.69;5055680;28;19913;-60
2023/01/31 08:58:02;;;;;;;;;;;;;;;4.08;97.80;102126.81;5061652;28;19938;-59
2023/01/31 09:00:28;;;;;;;;;;;;;;;4.11;97.66;102132.69;5066857;28;19916;-58
2023/01/31 09:02:54;;;;;;;;;;;;;;;4.14;97.64;102122.00;5072108;28;19917;-58
2023/01/31 09:05:20;;;;;;;;;;;;;;;4.15;97.57;102115.78;5067220;28;19916;-59
2023/01/31 09:07:45;;;;;;;;;;;;;;;4.17;97.75;102116.53;5061869;28;20829;-58
2023/01/31 09:10:10;;;;;;;;;;;;;;;4.19;97.53;102124.31;5073766;28;20014;-57
2023/01/31 09:12:35;;;;;;;;;;;;;;;4.21;97.38;102125.91;5062361;28;19951;-58
2023/01/31 09:15:01;;;;;;;;;;;;;;;4.23;97.38;102102.16;5063148;28;20386;-59
2023/01/31 09:17:26;;;;;;;;;;;;;;;4.26;97.42;102096.69;5079782;28;19917;-58
2023/01/31 09:19:51;;;;;;;;;;;;;;;4.30;97.42;102085.88;5061304;28;19919;-58
2023/01/31 09:22:16;;;;;;;;;;;;;;;4.37;97.44;102099.47;5057675;28;20514;-58
2023/01/31 09:24:42;;;;;;;;;;;;;;;4.44;97.24;102103.41;5073530;28;19916;-58
2023/01/31 09:27:07;;;;;;;;;;;;;;;4.50;97.12;102097.72;5063888;28;19920;-58
2023/01/31 09:29:32;;;;;;;;;;;;;;;4.57;97.29;102113.94;5057877;28;19975;-58
2023/01/31 09:31:57;;;;;;;;;;;;;;;4.66;97.49;102108.94;5073267;28;20350;-59
2023/01/31 09:34:22;;;;;;;;;;;;;;;4.74;97.06;102115.47;5067991;28;19917;-60
2023/01/31 09:36:48;;;;;;;;;;;;;;;4.79;96.79;102116.84;5063437;28;20055;-58
2023/01/31 09:39:13;;;;;;;;;;;;;;;4.83;96.69;102109.59;5068848;28;19917;-59
2023/01/31 09:41:50;;;;;;;;;;;;;;;4.86;96.70;102118.13;5061922;28;19917;-58
2023/01/31 09:44:23;;;;;;;;;;;;;;;4.92;96.82;102103.75;5079022;28;19927;-58
2023/01/31 09:47:02;;;;;;;;;;;;;;;4.97;96.69;102117.44;5064559;28;19912;-58
2023/01/31 09:49:30;;;;;;;;;;;;;;;4.99;96.50;102112.91;5068714;28;20000;-59
2023/01/31 09:51:58;;;;;;;;;;;;;;;5.03;96.20;102113.53;5067831;28;20011;-58
2023/01/31 09:54:27;;;;;;;;;;;;;;;5.04;96.38;102105.53;5078739;28;19912;-57
2023/01/31 09:57:01;;;;;;;;;;;;;;;5.06;96.37;102106.28;5061741;28;19913;-59
2023/01/31 09:59:34;;;;;;;;;;;;;;;5.12;96.49;102112.91;5070885;28;19931;-58
2023/01/31 10:02:10;;;;;;;;;;;;;;;5.13;96.47;102109.31;5075872;28;19912;-58
2023/01/31 10:04:54;;;;;;;;;;;;;;;5.13;96.07;102091.75;5067572;28;19917;-59
2023/01/31 10:07:27;;;;;;;;;;;;;;;5.21;96.24;102083.34;5067347;28;20300;-59
2023/01/31 10:10:15;;;;;;;;;;;;;;;5.27;96.38;102078.47;5064689;28;19965;-60
2023/01/31 10:13:07;;;;;;;;;;;;;;;5.34;96.19;102084.16;5070055;28;19920;-59
2023/01/31 10:15:41;;;;;;;;;;;;;;;5.37;95.90;102083.94;5045137;28;19920;-59
2023/01/31 10:18:12;;;;;;;;;;;;;;;5.34;95.90;102083.31;5066543;28;19924;-59
2023/01/31 10:20:40;;;;;;;;;;;;;;;5.29;95.98;102102.91;5067439;28;20292;-58
2023/01/31 10:23:18;;;;;;;;;;;;;;;5.28;96.02;102092.50;5075873;28;19923;-59
2023/01/31 10:25:53;;;;;;;;;;;;;;;5.30;96.02;102111.66;5072572;28;20371;-58
2023/01/31 10:28:23;;;;;;;;;;;;;;;5.23;96.20;102097.25;5064145;28;19920;-60
2023/01/31 10:30:48;;;;;;;;;;;;;;;5.26;96.48;102149.69;5071631;28;20284;-60
2023/01/31 10:33:20;;;;;;;;;;;;;;;5.25;96.37;102119.88;5083152;28;19931;-57
2023/01/31 10:35:47;;;;;;;;;;;;;;;5.22;96.56;102117.47;5069249;28;19912;-58
2023/01/31 10:38:15;;;;;;;;;;;;;;;5.25;96.55;102097.97;5067929;28;20489;-59
2023/01/31 10:40:44;;;;;;;;;;;;;;;5.25;96.88;102095.34;5078369;28;19920;-59
2023/01/31 10:43:26;;;;;;;;;;;;;;;5.26;97.14;102100.50;5074456;28;19916;-59
2023/01/31 10:45:52;;;;;;;;;;;;;;;5.27;97.08;102096.91;5062060;28;19916;-58
2023/01/31 10:48:19;;;;;;;;;;;;;;;5.29;97.52;102108.19;5064686;28;19928;-59
2023/01/31 10:50:53;;;;;;;;;;;;;;;5.32;97.05;102085.22;5064678;28;20448;-58
2023/01/31 10:53:37;;;;;;;;;;;;;;;5.32;97.25;102085.22;5069239;28;19916;-59
2023/01/31 10:56:07;;;;;;;;;;;;;;;5.35;97.36;102085.84;5063067;28;19920;-59
2023/01/31 10:58:33;;;;;;;;;;;;;;;5.39;97.67;102091.75;5070449;28;19925;-60
2023/01/31 11:00:58;;;;;;;;;;;;;;;5.40;97.66;102083.72;5060048;28;19923;-59
2023/01/31 11:03:24;;;;;;;;;;;;;;;5.41;97.88;102080.16;5062971;28;20316;-59
2023/01/31 11:05:56;;;;;;;;;;;;;;;5.44;97.41;102082.56;5064863;28;20037;-58
2023/01/31 11:08:57;;;;;;;;;;;;;;;5.47;97.59;102094.69;5063086;28;19917;-59
2023/01/31 11:11:23;;;;;;;;;;;;;;;5.50;97.62;102089.22;5012878;28;19921;-59
2023/01/31 11:13:56;;;;;;;;;;;;;;;5.50;97.92;102057.59;5053675;28;19916;-58
2023/01/31 11:16:22;;;;;;;;;;;;;;;5.53;97.65;102065.28;5062212;28;19925;-58
2023/01/31 11:18:49;;;;;;;;;;;;;;;5.59;98.07;102046.41;5056431;28;20299;-59
2023/01/31 11:21:19;;;;;;;;;;;;;;;5.65;98.13;102032.78;5060852;28;21683;-58
2023/01/31 11:23:44;;;;;;;;;;;;;;;5.68;97.73;102029.94;5062189;28;19917;-59
2023/01/31 11:26:09;;;;;;;;;;;;;;;5.70;97.73;102045.63;5073967;28;19961;-59
2023/01/31 11:28:36;;;;;;;;;;;;;;;5.75;97.64;102047.00;5064880;28;19920;-59
2023/01/31 11:31:03;;;;;;;;;;;;;;;5.75;98.04;102044.34;5059424;28;19974;-58
2023/01/31 11:33:46;;;;;;;;;;;;;;;5.79;97.71;102060.81;5067052;28;19920;-58
2023/01/31 11:36:13;;;;;;;;;;;;;;;5.81;97.44;102041.31;5055164;28;20326;-58
2023/01/31 11:38:38;;;;;;;;;;;;;;;5.79;97.87;102043.22;5058489;28;20398;-59
2023/01/31 11:41:23;;;;;;;;;;;;;;;5.80;98.14;102038.78;5061290;28;19916;-60
2023/01/31 11:43:48;;;;;;;;;;;;;;;5.82;97.77;102032.44;5076233;28;19916;-58
2023/01/31 11:46:14;;;;;;;;;;;;;;;5.86;97.96;102031.25;5062634;28;19983;-58
2023/01/31 11:48:40;;;;;;;;;;;;;;;5.94;97.85;102029.88;5063792;28;20415;-58
2023/01/31 11:51:05;;;;;;;;;;;;;;;5.97;97.92;102035.78;5055273;28;19928;-57
2023/01/31 11:53:38;;;;;;;;;;;;;;;6.01;97.98;102031.97;5057882;28;20656;-58
2023/01/31 11:56:29;;;;;;;;;;;;;;;6.10;97.79;102030.47;5062444;28;19924;-58
2023/01/31 11:58:57;;;;;;;;;;;;;;;6.12;97.59;102034.69;5074123;28;19946;-56
2023/01/31 12:01:24;;;;;;;;;;;;;;;6.16;97.76;102024.75;5064376;28;19959;-58
2023/01/31 12:03:54;;;;;;;;;;;;;;;6.21;97.57;102035.78;5076180;28;19944;-59
2023/01/31 12:06:25;;;;;;;;;;;;;;;6.26;97.28;102033.66;5083390;28;20391;-58
2023/01/31 12:08:54;;;;;;;;;;;;;;;6.38;97.21;102035.41;5064199;28;19927;-58
2023/01/31 12:11:19;;;;;;;;;;;;;;;6.40;97.07;102032.63;5077637;28;19924;-58
2023/01/31 12:13:46;;;;;;;;;;;;;;;6.45;97.30;102031.34;5077493;28;19920;-59
2023/01/31 12:16:11;;;;;;;;;;;;;;;6.56;97.24;102027.03;5081267;28;19916;-58
2023/01/31 12:18:49;;;;;;;;;;;;;;;6.39;97.65;102026.53;5070199;28;19973;-57
2023/01/31 12:21:15;;;;;;;;;;;;;;;6.30;98.12;102023.72;5065841;28;20361;-58
2023/01/31 12:23:46;;;;;;;;;;;;;;;6.22;98.75;102025.13;5061436;28;19920;-58
2023/01/31 12:26:24;;;;;;;;;;;;;;;6.23;99.24;102025.97;5070012;28;19916;-60
2023/01/31 12:29:05;;;;;;;;;;;;;;;6.14;99.89;102030.13;5066100;28;19917;-59
2023/01/31 12:31:39;;;;;;;;;;;;;;;6.10;100.00;102019.91;5066605;28;19916;-59
2023/01/31 12:34:04;;;;;;;;;;;;;;;6.05;100.00;102004.41;5063143;28;19962;-60
2023/01/31 12:36:37;;;;;;;;;;;;;;;6.07;100.00;102034.19;5064211;28;19963;-60
2023/01/31 12:39:21;;;;;;;;;;;;;;;6.08;100.00;102021.84;5058169;28;19916;-59
2023/01/31 12:41:49;;;;;;;;;;;;;;;6.05;100.00;102016.75;5065365;28;19979;-57
2023/01/31 12:44:35;;;;;;;;;;;;;;;5.97;100.00;102019.13;5068439;28;20516;-59
2023/01/31 12:47:19;;;;;;;;;;;;;;;6.05;100.00;102008.84;5070401;28;19939;-59
2023/01/31 12:49:56;;;;;;;;;;;;;;;6.04;100.00;102015.91;5065107;28;19913;-59
2023/01/31 12:52:24;;;;;;;;;;;;;;;6.10;100.00;102014.66;5060517;28;20395;-60
2023/01/31 12:55:08;;;;;;;;;;;;;;;6.11;100.00;102016.31;5065776;28;19927;-58
2023/01/31 12:57:36;;;;;;;;;;;;;;;6.17;100.00;102002.69;5069078;28;19916;-60
2023/01/31 13:00:13;;;;;;;;;;;;;;;6.15;100.00;101996.69;5058870;28;19927;-58